createdAt,value
2018-05-25T00:00:14.108Z,14.9
2018-05-25T00:01:16.235Z,14.8
2018-05-25T00:02:18.228Z,14.8
2018-05-25T00:03:20.235Z,14.8
2018-05-25T00:04:22.359Z,14.8
2018-05-25T00:05:24.345Z,14.8
2018-05-25T00:06:26.355Z,14.8
2018-05-25T00:07:28.672Z,14.8
2018-05-25T00:08:30.962Z,14.8
2018-05-25T00:09:32.990Z,14.8
2018-05-25T00:10:34.949Z,14.7
2018-05-25T00:11:37.157Z,14.7
2018-05-25T00:12:39.354Z,14.7
2018-05-25T00:13:41.412Z,14.8
2018-05-25T00:14:43.409Z,14.8
2018-05-25T00:15:46.111Z,14.8
2018-05-25T00:16:48.136Z,14.7
2018-05-25T00:17:50.127Z,14.7
2018-05-25T00:18:52.127Z,14.6
2018-05-25T00:19:54.135Z,14.6
2018-05-25T00:20:56.139Z,14.6
2018-05-25T00:21:58.438Z,14.6
2018-05-25T00:23:00.439Z,14.7
2018-05-25T00:24:02.718Z,14.7
2018-05-25T00:25:05.011Z,14.7
2018-05-25T00:26:07.016Z,14.6
2018-05-25T00:27:09.119Z,14.6
2018-05-25T00:28:11.123Z,14.6
2018-05-25T00:29:13.388Z,14.6
2018-05-25T00:30:15.382Z,14.6
2018-05-25T00:31:17.389Z,14.6
2018-05-25T00:32:19.439Z,14.5
2018-05-25T00:33:21.733Z,14.5
2018-05-25T00:34:23.716Z,14.5
2018-05-25T00:35:25.726Z,14.5
2018-05-25T00:36:27.745Z,14.5
2018-05-25T00:37:29.735Z,14.5
2018-05-25T00:38:31.756Z,14.5
2018-05-25T00:39:33.749Z,14.5
2018-05-25T00:40:35.770Z,14.6
2018-05-25T00:41:37.776Z,14.5
2018-05-25T00:42:39.792Z,14.5
2018-05-25T00:43:42.079Z,14.5
2018-05-25T00:44:44.076Z,14.5
2018-05-25T00:45:46.073Z,14.5
2018-05-25T00:46:48.353Z,14.5
2018-05-25T00:47:50.336Z,14.4
2018-05-25T00:48:52.341Z,14.4
2018-05-25T00:49:54.341Z,14.3
2018-05-25T00:50:56.341Z,14.4
2018-05-25T00:51:58.336Z,14.4
2018-05-25T00:53:00.602Z,14.4
2018-05-25T00:54:02.597Z,14.5
2018-05-25T00:55:04.611Z,14.4
2018-05-25T00:56:06.605Z,14.4
2018-05-25T00:57:08.595Z,14.5
2018-05-25T00:58:10.591Z,14.5
2018-05-25T00:59:12.596Z,14.5
2018-05-25T01:00:14.919Z,14.5
2018-05-25T01:01:17.291Z,14.5
2018-05-25T01:02:19.296Z,14.5
2018-05-25T01:03:21.307Z,14.6
2018-05-25T01:04:23.294Z,14.6
2018-05-25T01:05:25.293Z,14.6
2018-05-25T01:06:27.297Z,14.5
2018-05-25T01:07:29.287Z,14.6
2018-05-25T01:08:31.278Z,14.6
2018-05-25T01:09:33.271Z,14.6
2018-05-25T01:10:35.273Z,14.6
2018-05-25T01:11:37.266Z,14.7
2018-05-25T01:12:39.542Z,14.7
2018-05-25T01:13:41.583Z,14.7
2018-05-25T01:14:43.573Z,14.7
2018-05-25T01:15:45.592Z,14.7
2018-05-25T01:16:47.580Z,14.7
2018-05-25T01:17:49.604Z,14.7
2018-05-25T01:18:51.598Z,14.7
2018-05-25T01:19:53.582Z,14.8
2018-05-25T01:20:55.592Z,14.8
2018-05-25T01:21:57.613Z,14.8
2018-05-25T01:22:59.991Z,14.8
2018-05-25T01:24:02.373Z,14.8
2018-05-25T01:25:04.374Z,14.8
2018-05-25T01:26:06.365Z,14.8
2018-05-25T01:27:08.785Z,14.8
2018-05-25T01:28:10.776Z,14.8
2018-05-25T01:29:13.445Z,14.7
2018-05-25T01:30:15.437Z,14.8
2018-05-25T01:31:17.433Z,14.7
2018-05-25T01:32:19.436Z,14.8
2018-05-25T01:33:21.434Z,14.7
2018-05-25T01:34:23.429Z,14.8
2018-05-25T01:35:25.443Z,14.8
2018-05-25T01:36:27.713Z,14.8
2018-05-25T01:37:29.707Z,14.8
2018-05-25T01:38:31.713Z,14.8
2018-05-25T01:39:33.702Z,14.8
2018-05-25T01:40:35.701Z,14.8
2018-05-25T01:41:37.689Z,14.8
2018-05-25T01:42:39.695Z,14.8
2018-05-25T01:43:41.684Z,14.8
2018-05-25T01:44:43.672Z,14.8
2018-05-25T01:45:45.684Z,14.8
2018-05-25T01:46:47.951Z,14.8
2018-05-25T01:47:49.977Z,14.8
2018-05-25T01:48:51.972Z,14.8
2018-05-25T01:49:53.992Z,14.8
2018-05-25T01:50:56.269Z,14.8
2018-05-25T01:51:58.259Z,14.8
2018-05-25T01:53:00.254Z,14.8
2018-05-25T01:54:02.257Z,14.8
2018-05-25T01:55:04.543Z,14.8
2018-05-25T01:56:06.534Z,14.8
2018-05-25T01:57:08.537Z,14.7
2018-05-25T01:58:10.531Z,14.8
2018-05-25T01:59:12.831Z,14.7
2018-05-25T02:00:15.108Z,14.7
2018-05-25T02:01:17.112Z,14.7
2018-05-25T02:02:19.111Z,14.7
2018-05-25T02:03:21.148Z,14.8
2018-05-25T02:04:23.145Z,14.7
2018-05-25T02:05:25.155Z,14.7
2018-05-25T02:06:27.144Z,14.8
2018-05-25T02:07:29.551Z,14.8
2018-05-25T02:08:31.547Z,14.8
2018-05-25T02:09:33.546Z,14.8
2018-05-25T02:10:35.544Z,14.8
2018-05-25T02:11:37.533Z,14.9
2018-05-25T02:12:39.529Z,14.9
2018-05-25T02:13:41.523Z,14.9
2018-05-25T02:14:43.521Z,14.9
2018-05-25T02:15:45.515Z,14.9
2018-05-25T02:16:47.828Z,14.9
2018-05-25T02:17:49.891Z,14.9
2018-05-25T02:18:51.840Z,14.9
2018-05-25T02:19:53.841Z,14.9
2018-05-25T02:20:56.117Z,15
2018-05-25T02:21:58.120Z,15
2018-05-25T02:23:00.146Z,15
2018-05-25T02:24:02.538Z,15
2018-05-25T02:25:04.598Z,15
2018-05-25T02:26:06.570Z,15
2018-05-25T02:27:08.583Z,15
2018-05-25T02:28:10.571Z,15
2018-05-25T02:29:12.571Z,15
2018-05-25T02:30:15.237Z,15
2018-05-25T02:31:17.917Z,15
2018-05-25T02:32:19.943Z,15
2018-05-25T02:33:21.939Z,14.9
2018-05-25T02:34:23.926Z,14.9
2018-05-25T02:35:25.936Z,14.9
2018-05-25T02:36:28.206Z,15
2018-05-25T02:37:30.527Z,14.9
2018-05-25T02:38:32.881Z,14.9
2018-05-25T02:39:34.847Z,14.9
2018-05-25T02:40:37.211Z,14.9
2018-05-25T02:41:39.217Z,14.9
2018-05-25T02:42:41.884Z,14.8
2018-05-25T02:43:43.904Z,14.9
2018-05-25T02:44:45.901Z,14.9
2018-05-25T02:45:47.894Z,14.8
2018-05-25T02:46:49.913Z,14.7
2018-05-25T02:47:52.488Z,14.7
2018-05-25T02:48:54.839Z,14.7
2018-05-25T02:49:56.763Z,14.6
2018-05-25T02:50:58.751Z,14.5
2018-05-25T02:52:00.757Z,14.6
2018-05-25T02:53:02.748Z,14.6
2018-05-25T02:54:05.030Z,14.5
2018-05-25T02:55:07.309Z,14.5
2018-05-25T02:56:09.580Z,14.4
2018-05-25T02:57:11.610Z,14.4
2018-05-25T02:58:13.947Z,14.4
2018-05-25T02:59:15.945Z,14.3
2018-05-25T03:00:18.229Z,14.3
2018-05-25T03:01:20.221Z,14.3
2018-05-25T03:02:22.222Z,14.3
2018-05-25T03:03:24.214Z,14.3
2018-05-25T03:04:26.589Z,14.4
2018-05-25T03:05:28.599Z,14.3
2018-05-25T03:06:30.880Z,14.3
2018-05-25T03:07:32.885Z,14.3
2018-05-25T03:08:34.880Z,14.3
2018-05-25T03:09:36.864Z,14.3
2018-05-25T03:10:38.858Z,14.3
2018-05-25T03:11:40.851Z,14.3
2018-05-25T03:12:43.235Z,14.3
2018-05-25T03:13:45.521Z,14.2
2018-05-25T03:14:47.511Z,14.2
2018-05-25T03:15:49.512Z,14.3
2018-05-25T03:16:51.508Z,14.3
2018-05-25T03:17:53.487Z,14.3
2018-05-25T03:18:55.492Z,14.2
2018-05-25T03:19:57.872Z,14.2
2018-05-25T03:20:59.875Z,14.3
2018-05-25T03:22:02.247Z,14.2
2018-05-25T03:23:04.235Z,14.2
2018-05-25T03:24:06.539Z,14.3
2018-05-25T03:25:08.529Z,14.3
2018-05-25T03:26:10.993Z,14.3
2018-05-25T03:27:13.217Z,14.3
2018-05-25T03:28:15.214Z,14.3
2018-05-25T03:29:17.216Z,14.3
2018-05-25T03:30:19.200Z,14.3
2018-05-25T03:31:21.589Z,14.3
2018-05-25T03:32:23.583Z,14.3
2018-05-25T03:33:25.627Z,14.3
2018-05-25T03:34:27.571Z,14.3
2018-05-25T03:35:30.146Z,14.3
2018-05-25T03:36:32.449Z,14.3
2018-05-25T03:37:34.722Z,14.3
2018-05-25T03:38:36.711Z,14.3
2018-05-25T03:39:38.714Z,14.3
2018-05-25T03:40:40.721Z,14.3
2018-05-25T03:41:42.712Z,14.3
2018-05-25T03:42:45.022Z,14.3
2018-05-25T03:43:47.720Z,14.3
2018-05-25T03:44:49.997Z,14.3
2018-05-25T03:45:51.992Z,14.3
2018-05-25T03:46:53.984Z,14.3
2018-05-25T03:47:55.986Z,14.3
2018-05-25T03:48:57.978Z,14.4
2018-05-25T03:50:00.251Z,14.5
2018-05-25T03:51:02.261Z,14.4
2018-05-25T03:52:04.243Z,14.4
2018-05-25T03:53:06.238Z,14.4
2018-05-25T03:54:08.227Z,14.5
2018-05-25T03:55:10.232Z,14.5
2018-05-25T03:56:12.507Z,14.5
2018-05-25T03:57:14.495Z,14.5
2018-05-25T03:58:16.882Z,14.6
2018-05-25T03:59:19.557Z,14.5
2018-05-25T04:00:21.554Z,14.5
2018-05-25T04:01:23.545Z,14.5
2018-05-25T04:02:25.533Z,14.5
2018-05-25T04:03:27.533Z,14.6
2018-05-25T04:04:29.819Z,14.6
2018-05-25T04:05:31.819Z,14.6
2018-05-25T04:06:33.817Z,14.6
2018-05-25T04:07:35.806Z,14.5
2018-05-25T04:08:37.798Z,14.5
2018-05-25T04:09:39.795Z,14.5
2018-05-25T04:10:41.786Z,14.5
2018-05-25T04:11:43.789Z,14.5
2018-05-25T04:12:46.169Z,14.5
2018-05-25T04:13:48.155Z,14.5
2018-05-25T04:14:50.530Z,14.6
2018-05-25T04:15:52.532Z,14.6
2018-05-25T04:16:54.524Z,14.6
2018-05-25T04:17:56.519Z,14.7
2018-05-25T04:18:58.517Z,14.6
2018-05-25T04:20:00.518Z,14.7
2018-05-25T04:21:02.507Z,14.7
2018-05-25T04:22:04.500Z,14.7
2018-05-25T04:23:06.510Z,14.8
2018-05-25T04:24:08.497Z,14.8
2018-05-25T04:25:10.494Z,14.8
2018-05-25T04:26:12.483Z,14.8
2018-05-25T04:27:14.477Z,14.9
2018-05-25T04:28:16.473Z,14.9
2018-05-25T04:29:18.462Z,14.9
2018-05-25T04:30:20.466Z,14.9
2018-05-25T04:31:22.455Z,15
2018-05-25T04:32:24.729Z,15
2018-05-25T04:33:27.031Z,15
2018-05-25T04:34:29.034Z,15
2018-05-25T04:35:31.497Z,15.1
2018-05-25T04:36:33.446Z,15.1
2018-05-25T04:37:35.719Z,15.1
2018-05-25T04:38:37.704Z,15.1
2018-05-25T04:39:40.098Z,15.1
2018-05-25T04:40:42.104Z,15.1
2018-05-25T04:41:44.093Z,15.2
2018-05-25T04:42:46.089Z,15.2
2018-05-25T04:43:48.085Z,15.2
2018-05-25T04:44:50.091Z,15.2
2018-05-25T04:45:52.380Z,15.3
2018-05-25T04:46:54.380Z,15.3
2018-05-25T04:47:56.386Z,15.3
2018-05-25T04:48:58.366Z,15.3
2018-05-25T04:50:00.365Z,15.3
2018-05-25T04:51:02.942Z,15.4
2018-05-25T04:52:04.939Z,15.3
2018-05-25T04:53:06.939Z,15.4
2018-05-25T04:54:09.211Z,15.3
2018-05-25T04:55:11.216Z,15.3
2018-05-25T04:56:13.212Z,15.3
2018-05-25T04:57:15.203Z,15.4
2018-05-25T04:58:17.200Z,15.4
2018-05-25T04:59:19.221Z,15.4
2018-05-25T05:00:21.198Z,15.4
2018-05-25T05:01:23.184Z,15.5
2018-05-25T05:02:25.183Z,15.5
2018-05-25T05:03:27.196Z,15.6
2018-05-25T05:04:29.194Z,15.6
2018-05-25T05:05:31.572Z,15.6
2018-05-25T05:06:33.572Z,15.6
2018-05-25T05:07:35.567Z,15.6
2018-05-25T05:08:37.562Z,15.6
2018-05-25T05:09:39.560Z,15.7
2018-05-25T05:10:41.566Z,15.6
2018-05-25T05:11:43.571Z,15.8
2018-05-25T05:12:45.847Z,15.6
2018-05-25T05:13:48.127Z,15.7
2018-05-25T05:14:50.576Z,15.7
2018-05-25T05:15:52.563Z,15.9
2018-05-25T05:16:54.566Z,16
2018-05-25T05:17:56.555Z,16
2018-05-25T05:18:58.830Z,16
2018-05-25T05:20:01.512Z,16.1
2018-05-25T05:21:04.544Z,16
2018-05-25T05:22:06.548Z,16.1
2018-05-25T05:23:08.570Z,16.1
2018-05-25T05:24:10.540Z,16.1
2018-05-25T05:25:12.541Z,16.2
2018-05-25T05:26:14.536Z,16.1
2018-05-25T05:27:16.539Z,16.1
2018-05-25T05:28:18.535Z,16.1
2018-05-25T05:29:20.519Z,16.1
2018-05-25T05:30:22.529Z,16.1
2018-05-25T05:31:25.205Z,16.2
2018-05-25T05:32:27.207Z,16.2
2018-05-25T05:33:29.205Z,16.4
2018-05-25T05:34:31.207Z,16.4
2018-05-25T05:35:33.215Z,16.4
2018-05-25T05:36:35.202Z,16.4
2018-05-25T05:37:37.501Z,16.5
2018-05-25T05:38:39.803Z,16.5
2018-05-25T05:39:41.803Z,16.5
2018-05-25T05:40:43.808Z,16.5
2018-05-25T05:41:45.811Z,16.5
2018-05-25T05:42:47.795Z,16.5
2018-05-25T05:43:49.805Z,16.5
2018-05-25T05:44:51.788Z,16.5
2018-05-25T05:45:53.798Z,16.6
2018-05-25T05:46:55.793Z,16.8
2018-05-25T05:47:57.794Z,16.9
2018-05-25T05:48:59.796Z,16.8
2018-05-25T05:50:01.793Z,16.9
2018-05-25T05:51:04.085Z,16.9
2018-05-25T05:52:06.088Z,16.9
2018-05-25T05:53:08.085Z,16.9
2018-05-25T05:54:10.095Z,16.9
2018-05-25T05:55:12.105Z,17
2018-05-25T05:56:14.098Z,17
2018-05-25T05:57:16.394Z,17.1
2018-05-25T05:58:18.385Z,17.2
2018-05-25T05:59:20.693Z,17.2
2018-05-25T06:00:22.989Z,17.2
2018-05-25T06:01:25.275Z,17.2
2018-05-25T06:02:27.266Z,17.2
2018-05-25T06:03:29.548Z,17.3
2018-05-25T06:04:31.540Z,17.3
2018-05-25T06:05:33.542Z,17.3
2018-05-25T06:06:35.565Z,17.3
2018-05-25T06:07:37.854Z,17.3
2018-05-25T06:08:39.854Z,17.4
2018-05-25T06:09:41.845Z,17.5
2018-05-25T06:10:43.845Z,17.5
2018-05-25T06:11:45.862Z,17.5
2018-05-25T06:12:48.149Z,17.5
2018-05-25T06:13:50.141Z,17.5
2018-05-25T06:14:52.141Z,17.5
2018-05-25T06:15:54.415Z,17.5
2018-05-25T06:16:56.409Z,17.6
2018-05-25T06:17:58.409Z,17.7
2018-05-25T06:19:00.709Z,17.7
2018-05-25T06:20:02.724Z,17.7
2018-05-25T06:21:05.457Z,17.7
2018-05-25T06:22:07.453Z,17.7
2018-05-25T06:23:09.744Z,17.8
2018-05-25T06:24:11.733Z,18
2018-05-25T06:25:14.463Z,18
2018-05-25T06:26:16.459Z,18
2018-05-25T06:27:18.461Z,18
2018-05-25T06:28:20.464Z,18
2018-05-25T06:29:22.459Z,18
2018-05-25T06:30:24.745Z,18
2018-05-25T06:31:26.749Z,18.1
2018-05-25T06:32:29.435Z,18.1
2018-05-25T06:33:31.823Z,18.2
2018-05-25T06:34:33.817Z,18.3
2018-05-25T06:35:35.826Z,18.3
2018-05-25T06:36:37.830Z,18.4
2018-05-25T06:37:39.821Z,18.4
2018-05-25T06:38:41.821Z,18.5
2018-05-25T06:39:43.820Z,18.6
2018-05-25T06:40:45.823Z,18.5
2018-05-25T06:41:48.515Z,18.5
2018-05-25T06:42:50.910Z,18.6
2018-05-25T06:43:52.922Z,18.6
2018-05-25T06:44:55.296Z,18.8
2018-05-25T06:45:57.302Z,18.8
2018-05-25T06:46:59.588Z,18.7
2018-05-25T06:48:01.582Z,18.8
2018-05-25T06:49:03.586Z,18.9
2018-05-25T06:50:05.580Z,18.8
2018-05-25T06:51:07.868Z,18.9
2018-05-25T06:52:09.872Z,19
2018-05-25T06:53:12.156Z,19
2018-05-25T06:54:14.147Z,19.1
2018-05-25T06:55:16.151Z,19.1
2018-05-25T06:56:18.154Z,19.1
2018-05-25T06:57:20.145Z,19.1
2018-05-25T06:58:22.150Z,19.1
2018-05-25T06:59:24.171Z,19.2
2018-05-25T07:00:26.465Z,19.2
2018-05-25T07:01:28.731Z,19.2
2018-05-25T07:02:30.732Z,19.1
2018-05-25T07:03:32.733Z,19.1
2018-05-25T07:04:35.403Z,19.2
2018-05-25T07:05:37.408Z,19.2
2018-05-25T07:06:39.803Z,19.3
2018-05-25T07:07:41.810Z,19.4
2018-05-25T07:08:43.807Z,19.5
2018-05-25T07:09:45.815Z,19.4
2018-05-25T07:10:47.811Z,19.4
2018-05-25T07:11:49.815Z,19.5
2018-05-25T07:12:51.818Z,19.5
2018-05-25T07:13:53.816Z,19.6
2018-05-25T07:14:55.819Z,19.7
2018-05-25T07:15:58.104Z,19.7
2018-05-25T07:17:00.107Z,19.7
2018-05-25T07:18:02.783Z,19.6
2018-05-25T07:19:04.800Z,19.7
2018-05-25T07:20:07.525Z,19.8
2018-05-25T07:21:09.911Z,19.8
2018-05-25T07:22:11.927Z,19.8
2018-05-25T07:23:13.929Z,19.8
2018-05-25T07:24:15.949Z,19.8
2018-05-25T07:25:17.975Z,19.9
2018-05-25T07:26:19.979Z,19.9
2018-05-25T07:27:21.976Z,20
2018-05-25T07:28:23.985Z,20.2
2018-05-25T07:29:25.986Z,20.1
2018-05-25T07:30:27.994Z,20.1
2018-05-25T07:31:30.010Z,20.3
2018-05-25T07:32:32.029Z,20.3
2018-05-25T07:33:34.036Z,20.4
2018-05-25T07:34:36.044Z,20.5
2018-05-25T07:35:38.049Z,20.6
2018-05-25T07:36:40.630Z,20.6
2018-05-25T07:37:42.643Z,20.6
2018-05-25T07:38:44.648Z,20.6
2018-05-25T07:39:46.941Z,20.6
2018-05-25T07:40:48.960Z,20.6
2018-05-25T07:41:50.960Z,20.6
2018-05-25T07:42:52.971Z,20.8
2018-05-25T07:43:54.991Z,21
2018-05-25T07:44:56.996Z,21
2018-05-25T07:45:59.018Z,21
2018-05-25T07:47:01.303Z,21
2018-05-25T07:48:03.592Z,21
2018-05-25T07:49:05.606Z,21.1
2018-05-25T07:50:07.608Z,21.1
2018-05-25T07:51:09.899Z,21.3
2018-05-25T07:52:11.941Z,21.4
2018-05-25T07:53:13.959Z,21.5
2018-05-25T07:54:16.397Z,21.5
2018-05-25T07:55:18.367Z,21.6
2018-05-25T07:56:20.662Z,21.7
2018-05-25T07:57:22.713Z,21.6
2018-05-25T07:58:24.717Z,21.7
2018-05-25T07:59:26.729Z,21.7
2018-05-25T08:00:28.738Z,21.8
2018-05-25T08:01:30.751Z,21.8
2018-05-25T08:02:32.789Z,21.8
2018-05-25T08:03:35.107Z,21.9
2018-05-25T08:04:37.113Z,21.8
2018-05-25T08:05:39.126Z,21.8
2018-05-25T08:06:41.530Z,21.8
2018-05-25T08:07:43.854Z,21.9
2018-05-25T08:08:45.863Z,22
2018-05-25T08:09:47.899Z,22
2018-05-25T08:10:49.906Z,22
2018-05-25T08:11:51.917Z,22.2
2018-05-25T08:12:53.963Z,22.3
2018-05-25T08:13:56.354Z,22.2
2018-05-25T08:14:58.369Z,22.3
2018-05-25T08:16:00.408Z,22.4
2018-05-25T08:17:02.442Z,22.5
2018-05-25T08:18:04.780Z,22.5
2018-05-25T08:19:06.783Z,22.7
2018-05-25T08:20:08.812Z,22.9
2018-05-25T08:21:10.826Z,22.9
2018-05-25T08:22:12.827Z,23
2018-05-25T08:23:14.909Z,22.7
2018-05-25T08:24:17.302Z,22.8
2018-05-25T08:25:19.346Z,23
2018-05-25T08:26:21.380Z,23.1
2018-05-25T08:27:23.378Z,23.3
2018-05-25T08:28:25.725Z,23.2
2018-05-25T08:29:27.737Z,23.2
2018-05-25T08:30:29.791Z,23.3
2018-05-25T08:31:31.838Z,23.5
2018-05-25T08:32:33.837Z,23.4
2018-05-25T08:33:35.905Z,23.5
2018-05-25T08:34:37.912Z,23.7
2018-05-25T08:35:39.929Z,23.9
2018-05-25T08:36:41.999Z,23.9
2018-05-25T08:37:44.017Z,23.8
2018-05-25T08:38:46.415Z,23.9
2018-05-25T08:39:48.420Z,23.9
2018-05-25T08:40:50.485Z,24.1
2018-05-25T08:41:52.501Z,24.1
2018-05-25T08:42:54.513Z,24.2
2018-05-25T08:43:56.825Z,24.5
2018-05-25T08:44:58.824Z,24.6
2018-05-25T08:46:01.165Z,24.6
2018-05-25T08:47:03.178Z,24.8
2018-05-25T08:48:05.206Z,24.9
2018-05-25T08:49:07.318Z,24.8
2018-05-25T08:50:09.752Z,24.9
2018-05-25T08:51:11.771Z,25.2
2018-05-25T08:52:13.811Z,25.2
2018-05-25T08:53:15.831Z,25.1
2018-05-25T08:54:17.866Z,24.8
2018-05-25T08:55:19.910Z,25
2018-05-25T08:56:21.917Z,25
2018-05-25T08:57:23.974Z,25.1
2018-05-25T08:58:26.270Z,25.1
2018-05-25T08:59:28.304Z,25.2
2018-05-25T09:00:30.332Z,25.3
2018-05-25T09:01:32.338Z,25.4
2018-05-25T09:02:34.635Z,25.4
2018-05-25T09:03:36.684Z,25.5
2018-05-25T09:04:38.720Z,25.7
2018-05-25T09:05:40.746Z,25.6
2018-05-25T09:06:42.772Z,25.8
2018-05-25T09:07:44.807Z,25.9
2018-05-25T09:08:46.866Z,25.6
2018-05-25T09:09:48.896Z,25.9
2018-05-25T09:10:50.913Z,26
2018-05-25T09:11:52.924Z,26.1
2018-05-25T09:12:55.007Z,26
2018-05-25T09:13:57.060Z,26.1
2018-05-25T09:14:59.075Z,26.2
2018-05-25T09:16:01.080Z,26.2
2018-05-25T09:17:03.380Z,26.3
2018-05-25T09:18:05.689Z,26.1
2018-05-25T09:19:07.696Z,26
2018-05-25T09:20:09.708Z,26.2
2018-05-25T09:21:11.760Z,26.3
2018-05-25T09:22:13.765Z,26.3
2018-05-25T09:23:15.834Z,26.7
2018-05-25T09:24:18.188Z,26.6
2018-05-25T09:25:20.202Z,26.6
2018-05-25T09:26:22.223Z,26.5
2018-05-25T09:27:24.227Z,26.6
2018-05-25T09:28:26.539Z,26.4
2018-05-25T09:29:28.832Z,26.5
2018-05-25T09:30:30.842Z,26.6
2018-05-25T09:31:32.958Z,26.8
2018-05-25T09:32:34.964Z,26.5
2018-05-25T09:33:37.270Z,26.8
2018-05-25T09:34:39.285Z,26.6
2018-05-25T09:35:41.291Z,26.8
2018-05-25T09:36:43.605Z,26.6
2018-05-25T09:37:45.609Z,26.4
2018-05-25T09:38:47.679Z,26.5
2018-05-25T09:39:50.423Z,26.7
2018-05-25T09:40:53.156Z,26.5
2018-05-25T09:41:55.132Z,26.9
2018-05-25T09:42:57.467Z,26.7
2018-05-25T09:43:59.492Z,26.9
2018-05-25T09:45:01.486Z,27
2018-05-25T09:46:03.509Z,27.3
2018-05-25T09:47:05.855Z,27.3
2018-05-25T09:48:07.919Z,27.4
2018-05-25T09:49:09.936Z,27.2
2018-05-25T09:50:11.955Z,27.4
2018-05-25T09:51:14.055Z,27.4
2018-05-25T09:52:16.072Z,27.5
2018-05-25T09:53:18.092Z,27.1
2018-05-25T09:54:20.115Z,27.3
2018-05-25T09:55:22.129Z,27
2018-05-25T09:56:24.182Z,26.7
2018-05-25T09:57:26.201Z,26.8
2018-05-25T09:58:28.495Z,27.2
2018-05-25T09:59:30.527Z,27.4
2018-05-25T10:00:32.812Z,27.4
2018-05-25T10:01:34.842Z,27.6
2018-05-25T10:02:36.861Z,27.6
2018-05-25T10:03:38.896Z,27.5
2018-05-25T10:04:41.227Z,27.5
2018-05-25T10:05:43.234Z,27.2
2018-05-25T10:06:45.818Z,27
2018-05-25T10:07:47.840Z,27
2018-05-25T10:08:50.169Z,27.4
2018-05-25T10:09:52.218Z,27.4
2018-05-25T10:10:54.245Z,27.5
2018-05-25T10:11:56.270Z,27.3
2018-05-25T10:12:58.290Z,27.1
2018-05-25T10:14:00.369Z,27.4
2018-05-25T10:15:02.397Z,27.3
2018-05-25T10:16:04.413Z,27.6
2018-05-25T10:17:06.443Z,27.2
2018-05-25T10:18:09.035Z,27.4
2018-05-25T10:19:11.043Z,27.6
2018-05-25T10:20:13.070Z,27.6
2018-05-25T10:21:15.472Z,27.7
2018-05-25T10:22:17.495Z,27.3
2018-05-25T10:23:19.800Z,27.5
2018-05-25T10:24:22.110Z,28
2018-05-25T10:25:24.112Z,27.8
2018-05-25T10:26:26.132Z,27.9
2018-05-25T10:27:28.150Z,28
2018-05-25T10:28:30.196Z,27.9
2018-05-25T10:29:32.216Z,27.9
2018-05-25T10:30:34.229Z,28.1
2018-05-25T10:31:36.705Z,27.6
2018-05-25T10:32:38.714Z,28
2018-05-25T10:33:41.015Z,28.2
2018-05-25T10:34:43.328Z,27.9
2018-05-25T10:35:45.339Z,27.8
2018-05-25T10:36:47.366Z,28.1
2018-05-25T10:37:49.402Z,28.5
2018-05-25T10:38:51.704Z,28.2
2018-05-25T10:39:53.808Z,28.4
2018-05-25T10:40:55.839Z,28.3
2018-05-25T10:41:57.854Z,28.1
2018-05-25T10:42:59.872Z,28.1
2018-05-25T10:44:01.883Z,28
2018-05-25T10:45:04.204Z,27.9
2018-05-25T10:46:06.224Z,27.9
2018-05-25T10:47:08.239Z,27.8
2018-05-25T10:48:10.354Z,28
2018-05-25T10:49:12.657Z,28.1
2018-05-25T10:50:14.674Z,28.4
2018-05-25T10:51:16.685Z,28.2
2018-05-25T10:52:18.797Z,28.3
2018-05-25T10:53:20.832Z,28.7
2018-05-25T10:54:22.850Z,28.6
2018-05-25T10:55:25.154Z,28.5
2018-05-25T10:56:27.181Z,28.6
2018-05-25T10:57:29.285Z,28.3
2018-05-25T10:58:31.315Z,28.4
2018-05-25T10:59:33.347Z,28.8
2018-05-25T11:00:35.358Z,28.6
2018-05-25T11:01:37.380Z,28.6
2018-05-25T11:02:39.486Z,29
2018-05-25T11:03:41.552Z,28.3
2018-05-25T11:04:43.547Z,28.4
2018-05-25T11:05:45.564Z,28.1
2018-05-25T11:06:47.590Z,28.9
2018-05-25T11:07:49.698Z,28.9
2018-05-25T11:08:51.720Z,28.9
2018-05-25T11:09:54.043Z,29
2018-05-25T11:10:56.452Z,29.3
2018-05-25T11:11:58.754Z,29
2018-05-25T11:13:01.280Z,28.5
2018-05-25T11:14:03.303Z,28.4
2018-05-25T11:15:05.624Z,28.4
2018-05-25T11:16:07.919Z,28.6
2018-05-25T11:17:10.028Z,28.4
2018-05-25T11:18:12.060Z,28.4
2018-05-25T11:19:14.373Z,28
2018-05-25T11:20:16.394Z,29
2018-05-25T11:21:18.415Z,28.3
2018-05-25T11:22:20.438Z,28.4
2018-05-25T11:23:22.463Z,28.7
2018-05-25T11:24:24.472Z,28.8
2018-05-25T11:25:26.507Z,28.7
2018-05-25T11:26:28.522Z,28.5
2018-05-25T11:27:30.560Z,28.6
2018-05-25T11:28:32.573Z,28.6
2018-05-25T11:29:34.602Z,28.5
2018-05-25T11:30:36.623Z,28.8
2018-05-25T11:31:38.641Z,29
2018-05-25T11:32:40.662Z,28.9
2018-05-25T11:33:42.702Z,29.2
2018-05-25T11:34:44.716Z,29.4
2018-05-25T11:35:46.735Z,29.2
2018-05-25T11:36:48.749Z,29.3
2018-05-25T11:37:50.848Z,28.6
2018-05-25T11:38:53.426Z,28.6
2018-05-25T11:39:55.461Z,28.9
2018-05-25T11:40:57.457Z,28.7
2018-05-25T11:41:59.476Z,29
2018-05-25T11:43:01.493Z,29.1
2018-05-25T11:44:03.515Z,29.1
2018-05-25T11:45:05.553Z,29.4
2018-05-25T11:46:08.170Z,29.3
2018-05-25T11:47:10.178Z,29.6
2018-05-25T11:48:12.200Z,29.9
2018-05-25T11:49:14.221Z,29.2
2018-05-25T11:50:16.246Z,29.3
2018-05-25T11:51:18.273Z,29.7
2018-05-25T11:52:20.293Z,29.3
2018-05-25T11:53:22.319Z,29.3
2018-05-25T11:54:24.654Z,29
2018-05-25T11:55:26.947Z,29.4
2018-05-25T11:56:28.976Z,28.8
2018-05-25T11:57:30.995Z,29.2
2018-05-25T11:58:33.016Z,29.4
2018-05-25T11:59:35.313Z,29.2
2018-05-25T12:00:37.334Z,29.3
2018-05-25T12:01:39.356Z,29.3
2018-05-25T12:02:41.663Z,29.6
2018-05-25T12:03:44.064Z,29.8
2018-05-25T12:04:46.377Z,29.3
2018-05-25T12:05:48.398Z,29.4
2018-05-25T12:06:53.607Z,28.6
2018-05-25T12:07:56.350Z,29
2018-05-25T12:08:58.379Z,29.3
2018-05-25T12:10:00.399Z,29.7
2018-05-25T12:11:02.427Z,29.6
2018-05-25T12:12:04.453Z,29.5
2018-05-25T12:13:06.865Z,29.5
2018-05-25T12:14:09.266Z,29.5
2018-05-25T12:15:11.323Z,29.5
2018-05-25T12:16:13.631Z,29.4
2018-05-25T12:17:15.660Z,29
2018-05-25T12:18:17.979Z,29.8
2018-05-25T12:19:20.309Z,29.7
2018-05-25T12:20:22.344Z,29.2
2018-05-25T12:21:25.024Z,29.6
2018-05-25T12:22:27.052Z,29.6
2018-05-25T12:23:29.078Z,29.4
2018-05-25T12:24:31.485Z,29.2
2018-05-25T12:25:33.827Z,29.8
2018-05-25T12:26:35.861Z,29.3
2018-05-25T12:27:37.896Z,29.3
2018-05-25T12:28:39.928Z,29.2
2018-05-25T12:29:41.955Z,29.4
2018-05-25T12:30:44.026Z,29.6
2018-05-25T12:31:46.061Z,29.9
2018-05-25T12:32:48.081Z,29.7
2018-05-25T12:33:50.101Z,29.8
2018-05-25T12:34:52.121Z,29.9
2018-05-25T12:35:54.157Z,29.6
2018-05-25T12:36:56.178Z,29.5
2018-05-25T12:37:58.203Z,29.6
2018-05-25T12:39:00.248Z,29.9
2018-05-25T12:40:02.278Z,29.2
2018-05-25T12:41:04.324Z,29.2
2018-05-25T12:42:06.346Z,29.6
2018-05-25T12:43:08.368Z,29
2018-05-25T12:44:10.401Z,29.6
2018-05-25T12:45:12.414Z,29.6
2018-05-25T12:46:15.209Z,30.1
2018-05-25T12:47:17.243Z,30.1
2018-05-25T12:48:19.265Z,29.6
2018-05-25T12:49:21.297Z,29.9
2018-05-25T12:50:23.348Z,29.4
2018-05-25T12:51:25.375Z,29.6
2018-05-25T12:52:27.408Z,28.9
2018-05-25T12:53:29.436Z,28.9
2018-05-25T12:54:31.439Z,28.7
2018-05-25T12:55:33.466Z,28.8
2018-05-25T12:56:35.498Z,29.1
2018-05-25T12:57:37.911Z,29.3
2018-05-25T12:58:39.942Z,29.5
2018-05-25T12:59:41.977Z,28.8
2018-05-25T13:00:43.989Z,29.3
2018-05-25T13:01:46.000Z,29.5
2018-05-25T13:02:48.023Z,29.2
2018-05-25T13:03:50.061Z,29.9
2018-05-25T13:04:52.082Z,29.8
2018-05-25T13:05:54.397Z,30.5
2018-05-25T13:06:56.450Z,30.2
2018-05-25T13:07:58.467Z,29.7
2018-05-25T13:09:00.487Z,29.1
2018-05-25T13:10:02.892Z,29.1
2018-05-25T13:11:04.952Z,29.3
2018-05-25T13:12:06.975Z,29
2018-05-25T13:13:09.020Z,28.9
2018-05-25T13:14:11.059Z,28.9
2018-05-25T13:15:13.116Z,28.9
2018-05-25T13:16:15.713Z,28.8
2018-05-25T13:17:18.126Z,29
2018-05-25T13:18:20.159Z,28.9
2018-05-25T13:19:22.189Z,29.1
2018-05-25T13:20:24.203Z,29.3
2018-05-25T13:21:26.236Z,29.1
2018-05-25T13:22:28.327Z,29.5
2018-05-25T13:23:30.302Z,29.6
2018-05-25T13:24:32.344Z,30
2018-05-25T13:25:35.026Z,30.1
2018-05-25T13:26:37.333Z,29.7
2018-05-25T13:27:39.372Z,29.5
2018-05-25T13:28:41.703Z,29.1
2018-05-25T13:29:43.995Z,28.9
2018-05-25T13:30:46.022Z,29.1
2018-05-25T13:31:48.050Z,29.9
2018-05-25T13:32:50.090Z,29.1
2018-05-25T13:33:52.125Z,28.5
2018-05-25T13:34:54.423Z,28.9
2018-05-25T13:35:56.776Z,28.9
2018-05-25T13:36:59.095Z,29.1
2018-05-25T13:38:01.531Z,29.1
2018-05-25T13:39:03.583Z,28.7
2018-05-25T13:40:05.892Z,29.2
2018-05-25T13:41:07.978Z,29
2018-05-25T13:42:10.016Z,29.4
2018-05-25T13:43:12.032Z,29.1
2018-05-25T13:44:14.073Z,28.6
2018-05-25T13:45:16.092Z,29.6
2018-05-25T13:46:18.113Z,29.8
2018-05-25T13:47:20.527Z,29.7
2018-05-25T13:48:22.584Z,29.1
2018-05-25T13:49:24.606Z,29.1
2018-05-25T13:50:26.665Z,29.1
2018-05-25T13:51:28.687Z,29